This is the latest recevied weather packets stored in our database for station/object KC3BHK-2. If no packets are shown the sender has not sent any weather packets the latest 10 day(s).
| Time | Temp. | Humidity | Pressure | Rain* | Wind** | Luminosity | Snow |
|---|---|---|---|---|---|---|---|
| 1777404888 | 14.44° C | - | - | 0 mm | 3.13 m/s, 128° | - | - |
| 1777404583 | 14.44° C | - | - | 0 mm | 1.79 m/s, 124° | - | - |
| 1777404279 | 14.44° C | - | - | 0 mm | 2.24 m/s, 155° | - | - |
| 1777403974 | 14.44° C | - | - | 0 mm | 4.02 m/s, 87° | - | - |
| 1777403669 | 15° C | - | - | 0 mm | 2.68 m/s, 103° | - | - |
| 1777403365 | 15° C | - | - | 0 mm | 1.79 m/s, 143° | - | - |
| 1777403056 | 14.44° C | - | - | 0 mm | 2.24 m/s, 115° | - | - |
| 1777402751 | 15° C | - | - | 0 mm | 3.58 m/s, 96° | - | - |
| 1777402446 | 14.44° C | - | - | 0 mm | 1.34 m/s, 152° | - | - |
| 1777402142 | 14.44° C | - | - | 0 mm | 1.79 m/s, 42° | - | - |
| 1777401837 | 13.89° C | - | - | 0 mm | 1.34 m/s, 84° | - | - |
| 1777401531 | 13.89° C | - | - | 0 mm | 0.89 m/s, 82° | - | - |
| 1777401224 | 13.33° C | - | - | 0 mm | 2.24 m/s, 93° | - | - |
| 1777400919 | 13.89° C | - | - | 0 mm | 2.68 m/s, 118° | - | - |
| 1777400614 | 13.89° C | - | - | 0 mm | 2.24 m/s, 100° | - | - |
| 1777400309 | 15° C | - | - | 0 mm | 3.13 m/s, 131° | - | - |
| 1777400004 | 14.44° C | - | - | 0 mm | 3.58 m/s, 170° | - | - |
| 1777399699 | 13.89° C | - | - | 0 mm | 0.45 m/s, 90° | - | - |
| 1777399392 | 14.44° C | - | - | 0 mm | 3.13 m/s, 120° | - | - |
| 1777399086 | 14.44° C | - | - | 0 mm | 3.13 m/s, 150° | - | - |
| 1777398781 | 13.89° C | - | - | 0 mm | 2.24 m/s, 93° | - | - |
| 1777398476 | 13.33° C | - | - | 0 mm | 0.89 m/s, 37° | - | - |
| 1777398171 | 13.89° C | - | - | 0 mm | 2.24 m/s, 153° | - | - |
| 1777397867 | 14.44° C | - | - | 0 mm | 3.58 m/s, 122° | - | - |
| 1777397559 | 13.33° C | - | - | 0 mm | 0.89 m/s, 104° | - | - |
* Rain latest hour (hover to see other rain measurements)
** Current wind speed in m/s (hover to see current wind gust speed)